Toccata — FGB2814 — position and weather

sailwx.info

Track history (hours):
 
Tides and Currents Weather Stations Pressure Air Temp Water Temp Dewpoint Dewpoint Depression Visibility Wind Speed Wind Dir Waves Ship Positions

Toccata

Last reported at 2018-Jun-20 09:30 UTC. Time now 2018-Jun-20 09:31 UTC.
Position N 51°41' W 008°30'.

Length 12 m.

Type: Sailing vessel. MMSI: 227553850.

Date/timePositionNaut miles runAvg speedWind from/ knotsBaromVisibWave heightAir tempDewpointWater temp
2018-Jun-20 09:30N 51°41' W 008°30'1 2.2
2018-Jun-20 08:56N 51°42' W 008°31'0 0.0
2018-Jun-20 08:26N 51°42' W 008°31'0 0.0
2018-Jun-18 16:27N 51°42' W 008°31'0 0.0
2018-Jun-18 16:00N 51°42' W 008°31'0 0.0
2018-Jun-18 15:30N 51°42' W 008°31'0 0.0
2018-Jun-18 15:00N 51°42' W 008°31'0 0.0
2018-Jun-18 14:30N 51°42' W 008°31'0 0.0
2018-Jun-18 13:57N 51°42' W 008°31'0 0.0
2018-Jun-18 13:27N 51°42' W 008°31'0 0.0
2018-Jun-18 13:00N 51°42' W 008°31'0 0.0
2018-Jun-18 12:30N 51°42' W 008°31'0 0.0
2018-Jun-18 12:00N 51°42' W 008°31'0 0.0
2018-Jun-18 11:24N 51°42' W 008°31'0 0.2
2018-Jun-18 11:00N 51°42' W 008°31'1 2.1
2018-Jun-18 10:30N 51°41' W 008°30'309 6.9
2018-Jun-16 13:54N 47°37' W 003°39'3 7.9
2018-Jun-16 13:30N 47°36' W 003°34'4 7.2
2018-Jun-16 12:59N 47°34' W 003°29'3 7.1
2018-Jun-16 12:30N 47°33' W 003°25'4 7.2
2018-Jun-16 12:00N 47°31' W 003°20'4 7.3
2018-Jun-16 11:30N 47°30' W 003°15'4 7.6
2018-Jun-16 11:00N 47°27' W 003°11'4 7.6
2018-Jun-16 10:30N 47°25' W 003°06'3 6.2
2018-Jun-16 10:00N 47°27' W 003°03'4 7.6
2018-Jun-16 09:30N 47°30' W 003°01'3 5.5
2018-Jun-16 09:00N 47°33' W 003°01'2 4.7
2018-Jun-16 08:30N 47°35' W 003°02'  
2018-Jun-11 11:12N 47°35' W 003°02'  
Track history (hours):
 
Tides and Currents Weather Stations Pressure Air Temp Water Temp Dewpoint Dewpoint Depression Visibility Wind Speed Wind Dir Waves Ship Positions

Toccata

Last reported at 2018-Jun-20 09:30 UTC. Time now 2018-Jun-20 09:31 UTC.
Position N 51°41' W 008°30'.

Length 12 m.

Type: Sailing vessel. MMSI: 227553850.

Date/timePositionNaut miles runAvg speedWind from/ knotsBaromVisibWave heightAir tempDewpointWater temp
2018-Jun-20 09:30N 51°41' W 008°30'1 2.2
2018-Jun-20 08:56N 51°42' W 008°31'0 0.0
2018-Jun-20 08:26N 51°42' W 008°31'0 0.0
2018-Jun-18 16:27N 51°42' W 008°31'0 0.0
2018-Jun-18 16:00N 51°42' W 008°31'0 0.0
2018-Jun-18 15:30N 51°42' W 008°31'0 0.0
2018-Jun-18 15:00N 51°42' W 008°31'0 0.0
2018-Jun-18 14:30N 51°42' W 008°31'0 0.0
2018-Jun-18 13:57N 51°42' W 008°31'0 0.0
2018-Jun-18 13:27N 51°42' W 008°31'0 0.0
2018-Jun-18 13:00N 51°42' W 008°31'0 0.0
2018-Jun-18 12:30N 51°42' W 008°31'0 0.0
2018-Jun-18 12:00N 51°42' W 008°31'0 0.0
2018-Jun-18 11:24N 51°42' W 008°31'0 0.2
2018-Jun-18 11:00N 51°42' W 008°31'1 2.1
2018-Jun-18 10:30N 51°41' W 008°30'309 6.9
2018-Jun-16 13:54N 47°37' W 003°39'3 7.9
2018-Jun-16 13:30N 47°36' W 003°34'4 7.2
2018-Jun-16 12:59N 47°34' W 003°29'3 7.1
2018-Jun-16 12:30N 47°33' W 003°25'4 7.2
2018-Jun-16 12:00N 47°31' W 003°20'4 7.3
2018-Jun-16 11:30N 47°30' W 003°15'4 7.6
2018-Jun-16 11:00N 47°27' W 003°11'4 7.6
2018-Jun-16 10:30N 47°25' W 003°06'3 6.2
2018-Jun-16 10:00N 47°27' W 003°03'4 7.6
2018-Jun-16 09:30N 47°30' W 003°01'3 5.5
2018-Jun-16 09:00N 47°33' W 003°01'2 4.7
2018-Jun-16 08:30N 47°35' W 003°02'  
2018-Jun-11 11:12N 47°35' W 003°02'  

Dump ship's entire track history